Time;durP1;ratioP1;P1;durP2;ratioP2;P2;SDS_P1;SDS_P2;PMS_P1;PMS_P2;Temp;Humidity;BMP_temperature;BMP_pressure;BME280_temperature;BME280_humidity;BME280_pressure;Samples;Min_cycle;Max_cycle;Signal;HPM_P1;HPM_P2
2022/01/24 00:00:33;;;;;;;15.27;8.68;;;0.50;99.90;;;;;;5019156;28;20419;-83
2022/01/24 00:02:59;;;;;;;14.07;9.18;;;0.50;99.90;;;;;;5036592;28;20026;-83
2022/01/24 00:05:25;;;;;;;17.23;9.80;;;0.50;99.90;;;;;;5036820;28;20025;-82
2022/01/24 00:07:51;;;;;;;17.10;9.52;;;0.50;99.90;;;;;;5036906;28;20074;-83
2022/01/24 00:10:20;;;;;;;15.48;8.85;;;0.50;99.90;;;;;;5046347;28;20034;-83
2022/01/24 00:18:12;;;;;;;13.05;7.57;;;0.50;99.90;;;;;;5051789;28;20051;-82
2022/01/24 00:26:44;;;;;;;14.18;8.57;;;0.50;99.90;;;;;;5044859;28;20051;-83
2022/01/24 00:29:27;;;;;;;15.65;8.25;;;0.40;99.90;;;;;;5013197;28;20031;-82
2022/01/24 00:31:54;;;;;;;15.50;8.43;;;0.50;99.90;;;;;;5002569;28;20046;-83
2022/01/24 00:34:23;;;;;;;15.35;8.13;;;0.50;99.90;;;;;;5006542;28;20386;-83
2022/01/24 00:36:49;;;;;;;15.65;8.00;;;0.50;99.90;;;;;;5060136;28;20026;-83
2022/01/24 00:39:15;;;;;;;13.50;8.52;;;0.50;99.90;;;;;;5023593;28;20104;-83
2022/01/24 00:46:46;;;;;;;15.93;9.40;;;0.50;99.90;;;;;;5044372;28;20029;-83
2022/01/24 00:52:59;;;;;;;18.15;9.52;;;0.60;99.90;;;;;;5027074;28;20025;-81
2022/01/24 00:54:48;;;;;;;15.57;9.07;;;0.60;99.90;;;;;;5043255;28;20520;-84
2022/01/24 00:57:14;;;;;;;15.15;9.15;;;0.60;99.90;;;;;;5045353;28;20516;-83
2022/01/24 00:59:39;;;;;;;19.25;9.25;;;0.60;99.90;;;;;;5043105;28;20073;-84
2022/01/24 01:02:06;;;;;;;15.70;8.57;;;0.70;99.90;;;;;;5043060;28;20064;-83
2022/01/24 01:21:07;;;;;;;17.60;9.73;;;0.80;99.90;;;;;;5041318;28;20089;-82
2022/01/24 01:23:21;;;;;;;16.08;9.73;;;0.70;99.90;;;;;;5038396;28;20113;-82
2022/01/24 01:25:48;;;;;;;17.50;9.98;;;0.70;99.90;;;;;;5040201;28;20028;-82
2022/01/24 01:28:15;;;;;;;18.88;9.65;;;0.60;99.90;;;;;;5042403;28;20026;-82
2022/01/24 01:30:46;;;;;;;17.90;9.68;;;0.60;99.90;;;;;;5043435;28;20032;-82
2022/01/24 01:33:24;;;;;;;17.65;9.88;;;0.50;99.90;;;;;;5042710;28;20041;-82
2022/01/24 01:36:16;;;;;;;16.48;9.80;;;0.40;99.90;;;;;;5049560;28;20091;-82
2022/01/24 01:39:01;;;;;;;20.13;11.10;;;0.40;99.90;;;;;;5029882;28;20040;-82
2022/01/24 01:55:40;;;;;;;17.88;10.00;;;0.20;99.90;;;;;;5049305;28;20079;-83
2022/01/24 01:58:18;;;;;;;21.08;11.13;;;0.20;99.90;;;;;;5025713;28;20402;-83
2022/01/24 02:00:47;;;;;;;21.00;11.63;;;0.20;99.90;;;;;;5033402;28;20034;-82
2022/01/24 02:03:13;;;;;;;18.20;11.00;;;0.20;99.90;;;;;;5057297;28;20060;-82
2022/01/24 02:05:40;;;;;;;18.60;9.90;;;0.20;99.90;;;;;;5036955;28;20029;-83
2022/01/24 02:08:06;;;;;;;18.80;10.35;;;0.20;99.90;;;;;;5051759;28;20017;-82
2022/01/24 02:10:37;;;;;;;17.45;9.60;;;0.20;99.90;;;;;;5049402;28;20040;-83
2022/01/24 02:13:03;;;;;;;14.93;8.98;;;0.10;99.90;;;;;;5048660;28;20092;-83
2022/01/24 02:25:59;;;;;;;13.13;8.13;;;0.20;99.90;;;;;;5040530;28;20033;-83
2022/01/24 02:28:29;;;;;;;15.27;8.32;;;0.20;99.90;;;;;;5041064;28;20429;-83
2022/01/24 02:33:26;;;;;;;15.38;8.30;;;0.30;99.90;;;;;;5071755;22;20040;-81
2022/01/24 02:35:52;;;;;;;15.55;8.65;;;0.30;99.90;;;;;;5056186;28;20021;-81
2022/01/24 02:49:14;;;;;;;18.30;9.68;;;0.10;99.90;;;;;;5038959;28;20032;-84
2022/01/24 02:51:46;;;;;;;14.50;8.70;;;0.10;99.90;;;;;;5022377;28;20060;-83
2022/01/24 02:54:32;;;;;;;16.58;9.57;;;0.10;99.90;;;;;;5021929;28;20021;-84
2022/01/24 02:56:58;;;;;;;16.67;9.70;;;0.10;99.90;;;;;;5040426;28;20032;-83
2022/01/24 02:59:23;;;;;;;20.13;9.90;;;0.10;99.90;;;;;;5021848;28;20033;-84
2022/01/24 03:01:49;;;;;;;17.42;9.55;;;0.10;99.90;;;;;;5040266;28;20030;-82
2022/01/24 03:04:15;;;;;;;15.80;9.45;;;0.10;99.90;;;;;;5041530;28;20057;-82
2022/01/24 03:06:41;;;;;;;19.52;9.60;;;0.00;99.90;;;;;;5042179;28;20026;-83
2022/01/24 03:09:08;;;;;;;15.25;8.95;;;0.00;99.90;;;;;;5022443;28;20035;-84
2022/01/24 03:11:58;;;;;;;14.82;8.80;;;0.00;99.90;;;;;;5023770;28;20041;-84
2022/01/24 03:14:36;;;;;;;14.02;8.27;;;0.00;99.90;;;;;;5041842;28;20486;-83
2022/01/24 03:17:04;;;;;;;16.20;9.65;;;0.00;99.90;;;;;;5023154;28;20075;-83
2022/01/24 03:19:30;;;;;;;18.08;9.68;;;-0.10;99.90;;;;;;5022953;28;20104;-84
2022/01/24 03:21:56;;;;;;;19.65;9.93;;;-0.10;99.90;;;;;;5041800;28;20056;-84
2022/01/24 03:24:22;;;;;;;17.83;10.88;;;-0.10;99.90;;;;;;5042981;28;20082;-83
2022/01/24 03:26:48;;;;;;;19.05;10.23;;;-0.10;99.90;;;;;;5025180;28;20025;-83
2022/01/24 03:29:14;;;;;;;19.98;10.23;;;-0.10;99.90;;;;;;5029967;28;20030;-83
2022/01/24 03:31:42;;;;;;;17.95;10.52;;;-0.10;99.90;;;;;;5049931;28;20036;-83
2022/01/24 03:34:08;;;;;;;18.08;9.93;;;-0.10;99.90;;;;;;5052488;28;20017;-82
2022/01/24 03:36:34;;;;;;;16.98;10.18;;;-0.10;99.90;;;;;;5040678;28;20020;-84
2022/01/24 03:39:00;;;;;;;17.95;9.93;;;-0.10;99.90;;;;;;5058985;28;20049;-84
2022/01/24 03:41:25;;;;;;;17.65;9.70;;;-0.10;99.90;;;;;;5036782;28;20046;-84
2022/01/24 03:43:52;;;;;;;17.30;9.85;;;-0.10;99.90;;;;;;5036998;28;20017;-84
2022/01/24 03:48:50;;;;;;;20.00;10.70;;;-0.10;99.90;;;;;;5047992;28;20386;-82
2022/01/24 03:51:17;;;;;;;19.05;10.27;;;-0.10;99.90;;;;;;5043929;28;20029;-84
2022/01/24 03:53:44;;;;;;;18.58;10.98;;;-0.10;99.90;;;;;;5030342;28;20029;-84
2022/01/24 03:56:10;;;;;;;19.13;10.50;;;-0.10;99.90;;;;;;5037228;28;20026;-82
2022/01/24 03:58:38;;;;;;;17.13;9.95;;;-0.10;99.90;;;;;;5035832;28;20029;-82
2022/01/24 04:01:06;;;;;;;18.25;10.85;;;-0.20;99.90;;;;;;5021408;28;20433;-83
2022/01/24 04:03:33;;;;;;;20.08;10.18;;;-0.20;99.90;;;;;;5021632;28;20025;-83
2022/01/24 04:05:59;;;;;;;18.33;9.93;;;-0.10;99.90;;;;;;5021724;28;20505;-83
2022/01/24 04:08:24;;;;;;;18.10;9.90;;;-0.10;99.90;;;;;;5022085;28;20025;-82
2022/01/24 04:10:54;;;;;;;18.50;10.90;;;-0.20;99.90;;;;;;5039240;28;20576;-82
2022/01/24 04:18:54;;;;;;;17.25;8.80;;;-0.20;99.90;;;;;;5043392;28;20033;-83
2022/01/24 04:24:03;;;;;;;16.38;8.95;;;-0.30;99.90;;;;;;5065432;28;20040;-81
2022/01/24 04:26:29;;;;;;;16.08;9.68;;;-0.20;99.90;;;;;;5046929;28;20021;-81
2022/01/24 04:28:56;;;;;;;18.17;9.00;;;-0.30;99.90;;;;;;5046163;28;20523;-83
2022/01/24 04:31:23;;;;;;;16.40;8.98;;;-0.30;99.90;;;;;;5064737;28;20469;-82
2022/01/24 04:33:49;;;;;;;15.52;8.95;;;-0.30;99.90;;;;;;5064167;28;20093;-82
2022/01/24 04:36:16;;;;;;;19.20;10.00;;;-0.30;99.90;;;;;;5063261;28;20557;-81
2022/01/24 04:38:42;;;;;;;18.90;9.93;;;-0.30;99.90;;;;;;5025542;28;20033;-81
2022/01/24 04:41:17;;;;;;;22.73;11.40;;;-0.30;99.90;;;;;;5043349;28;20072;-81
2022/01/24 04:46:28;;;;;;;19.45;10.35;;;-0.30;99.90;;;;;;5042963;28;20430;-82
2022/01/24 04:56:55;;;;;;;20.05;10.80;;;-0.40;99.90;;;;;;5051682;28;20048;-79
2022/01/24 04:59:21;;;;;;;20.67;11.25;;;-0.40;99.90;;;;;;5028504;28;20061;-79
2022/01/24 05:01:47;;;;;;;18.75;11.32;;;-0.40;99.90;;;;;;5049634;28;20033;-79
2022/01/24 05:04:13;;;;;;;21.15;11.80;;;-0.40;99.90;;;;;;5033700;28;20109;-79
2022/01/24 05:06:39;;;;;;;20.83;11.30;;;-0.40;99.90;;;;;;5030430;28;20171;-79
2022/01/24 05:09:06;;;;;;;20.83;11.82;;;-0.40;99.90;;;;;;5024416;28;20196;-80
2022/01/24 05:11:46;;;;;;;24.08;11.98;;;-0.40;99.90;;;;;;5036533;28;20127;-81
2022/01/24 05:24:50;;;;;;;21.35;11.95;;;-0.50;99.90;;;;;;5037131;28;20029;-80
2022/01/24 05:27:15;;;;;;;18.30;10.85;;;-0.50;99.90;;;;;;5038025;28;20017;-80
2022/01/24 05:29:41;;;;;;;20.40;10.30;;;-0.50;99.90;;;;;;5020203;28;20079;-80
2022/01/24 05:32:08;;;;;;;18.60;9.98;;;-0.50;99.90;;;;;;5039423;28;20405;-81
2022/01/24 05:34:34;;;;;;;22.90;10.95;;;-0.60;99.90;;;;;;5039674;28;20109;-81
2022/01/24 05:37:00;;;;;;;19.40;10.80;;;-0.50;99.90;;;;;;5050459;28;20367;-82
2022/01/24 05:39:26;;;;;;;18.27;9.65;;;-0.50;99.90;;;;;;5027227;28;20044;-81
2022/01/24 05:41:52;;;;;;;19.00;10.68;;;-0.50;99.90;;;;;;5025700;28;20029;-81
2022/01/24 05:44:18;;;;;;;22.05;11.32;;;-0.50;99.90;;;;;;5053050;28;20025;-80
2022/01/24 05:46:44;;;;;;;23.08;12.90;;;-0.50;99.90;;;;;;5056674;28;20041;-85
2022/01/24 05:49:10;;;;;;;25.70;13.30;;;-0.50;99.90;;;;;;5056499;28;20032;-88
2022/01/24 05:51:35;;;;;;;22.27;12.75;;;-0.50;99.90;;;;;;5026487;28;20029;-84
2022/01/24 05:54:02;;;;;;;23.17;12.70;;;-0.60;99.90;;;;;;5021931;28;20048;-84
2022/01/24 05:56:27;;;;;;;21.13;11.30;;;-0.60;99.90;;;;;;5022187;28;20056;-84
2022/01/24 05:58:53;;;;;;;25.45;13.05;;;-0.60;99.90;;;;;;5028335;28;20034;-83
2022/01/24 06:01:20;;;;;;;21.88;11.85;;;-0.60;99.90;;;;;;5041265;28;20053;-82
2022/01/24 06:03:46;;;;;;;21.98;12.18;;;-0.60;99.90;;;;;;5029210;28;20049;-84
2022/01/24 06:06:11;;;;;;;24.45;12.13;;;-0.60;99.90;;;;;;5049926;28;20490;-84
2022/01/24 06:08:37;;;;;;;24.20;12.85;;;-0.70;99.90;;;;;;5072870;28;20409;-84
2022/01/24 06:11:03;;;;;;;22.52;13.15;;;-0.70;99.90;;;;;;5047194;28;20025;-85
2022/01/24 06:13:30;;;;;;;23.10;12.68;;;-0.70;99.90;;;;;;5046176;28;20029;-86
2022/01/24 06:15:56;;;;;;;24.15;12.38;;;-0.70;99.90;;;;;;5044247;28;20029;-86
2022/01/24 06:18:25;;;;;;;23.25;13.07;;;-0.70;99.90;;;;;;5049395;28;20064;-85
2022/01/24 06:20:51;;;;;;;23.50;12.27;;;-0.80;99.90;;;;;;5047149;28;20028;-85
2022/01/24 06:23:17;;;;;;;19.80;10.80;;;-0.80;99.90;;;;;;5065445;28;20074;-85
2022/01/24 06:25:43;;;;;;;21.15;11.50;;;-0.90;99.90;;;;;;5046367;28;20025;-85
2022/01/24 06:28:09;;;;;;;23.33;12.35;;;-0.90;99.90;;;;;;5060374;28;20052;-85
2022/01/24 06:30:35;;;;;;;20.23;11.18;;;-1.00;99.90;;;;;;5058427;28;20468;-85
2022/01/24 06:33:01;;;;;;;27.20;12.85;;;-1.00;99.90;;;;;;5043367;28;20029;-85
2022/01/24 06:35:27;;;;;;;22.85;12.32;;;-1.00;99.90;;;;;;5061356;28;20047;-86
2022/01/24 06:37:58;;;;;;;21.77;11.43;;;-1.00;99.90;;;;;;5060398;28;20053;-83
2022/01/24 06:40:27;;;;;;;22.85;11.55;;;-1.00;99.90;;;;;;5044778;28;20025;-84
2022/01/24 06:42:52;;;;;;;22.85;12.15;;;-1.10;99.90;;;;;;5061926;28;20055;-84
2022/01/24 06:45:24;;;;;;;24.35;12.70;;;-1.10;99.90;;;;;;5026873;28;20425;-85
2022/01/24 06:47:49;;;;;;;27.80;13.57;;;-1.10;99.90;;;;;;5025641;28;20028;-83
2022/01/24 06:50:15;;;;;;;23.17;12.85;;;-1.10;99.90;;;;;;5023638;28;20470;-83
2022/01/24 06:52:41;;;;;;;25.98;13.55;;;-1.10;99.90;;;;;;5023651;28;20028;-84
2022/01/24 06:55:08;;;;;;;25.40;12.52;;;-1.10;99.90;;;;;;5022529;28;20028;-83
2022/01/24 06:57:34;;;;;;;27.15;13.75;;;-1.10;99.90;;;;;;5040981;28;20025;-84
2022/01/24 07:00:00;;;;;;;25.98;13.25;;;-1.10;99.90;;;;;;5045481;28;20032;-83
2022/01/24 07:02:26;;;;;;;26.70;13.77;;;-1.00;99.90;;;;;;5046820;28;20013;-83
2022/01/24 07:04:52;;;;;;;25.17;12.23;;;-1.00;99.90;;;;;;5047505;28;20079;-84
2022/01/24 07:07:18;;;;;;;22.13;11.77;;;-1.00;99.90;;;;;;5021084;28;20048;-82
2022/01/24 07:09:44;;;;;;;25.40;12.23;;;-1.00;99.90;;;;;;5038430;28;20189;-84
2022/01/24 07:12:10;;;;;;;21.65;11.85;;;-0.90;99.90;;;;;;5020473;28;20033;-82
2022/01/24 07:14:38;;;;;;;22.70;12.43;;;-0.80;99.90;;;;;;5022505;28;20171;-84
2022/01/24 07:17:28;;;;;;;25.58;12.38;;;-0.80;99.90;;;;;;5037788;28;20116;-84
2022/01/24 07:19:54;;;;;;;21.38;11.27;;;-0.80;99.90;;;;;;5020534;28;20049;-82
2022/01/24 07:22:21;;;;;;;22.92;11.48;;;-0.70;99.90;;;;;;5002608;28;20025;-83
2022/01/24 07:24:47;;;;;;;21.80;11.70;;;-0.70;99.90;;;;;;5001626;28;20022;-84
2022/01/24 07:27:13;;;;;;;21.67;11.55;;;-0.70;99.90;;;;;;5019118;28;20099;-82
2022/01/24 07:29:41;;;;;;;21.85;11.98;;;-0.50;99.90;;;;;;5019850;28;20041;-82
2022/01/24 07:32:07;;;;;;;20.42;10.80;;;-0.40;99.90;;;;;;5007155;28;20105;-83
2022/01/24 07:34:32;;;;;;;18.25;10.30;;;-0.20;99.90;;;;;;5033360;28;20018;-83
2022/01/24 07:36:58;;;;;;;22.52;11.38;;;0.00;99.90;;;;;;5041787;28;20033;-87
2022/01/24 07:39:24;;;;;;;18.73;10.85;;;0.20;99.90;;;;;;5055003;28;20036;-86
2022/01/24 07:41:51;;;;;;;19.08;11.55;;;0.30;99.90;;;;;;5021473;28;20452;-82
2022/01/24 07:44:20;;;;;;;17.00;10.10;;;0.40;99.90;;;;;;5037610;28;20049;-83
2022/01/24 07:46:47;;;;;;;19.27;10.85;;;0.40;99.90;;;;;;5038450;28;20089;-85
2022/01/24 07:49:13;;;;;;;24.77;11.75;;;0.40;99.90;;;;;;5021194;28;20025;-83
2022/01/24 07:51:40;;;;;;;20.48;11.50;;;0.40;99.90;;;;;;5040286;28;20117;-83
2022/01/24 07:54:08;;;;;;;20.52;11.27;;;0.40;99.90;;;;;;5021349;28;20048;-83
2022/01/24 07:56:34;;;;;;;20.02;10.90;;;0.40;99.90;;;;;;5023508;28;20025;-84
2022/01/24 07:59:00;;;;;;;20.15;10.25;;;0.40;99.90;;;;;;5037749;28;20056;-84
2022/01/24 08:01:26;;;;;;;21.67;11.48;;;0.50;99.90;;;;;;5039805;28;20435;-85
2022/01/24 08:03:52;;;;;;;19.65;9.85;;;0.60;99.90;;;;;;5019548;28;20341;-84
2022/01/24 08:06:18;;;;;;;20.65;11.40;;;0.80;99.90;;;;;;5037422;28;20018;-86
2022/01/24 08:08:44;;;;;;;16.25;9.68;;;0.90;99.90;;;;;;5037892;28;20041;-82
2022/01/24 08:11:11;;;;;;;18.67;11.15;;;1.10;99.90;;;;;;5038110;28;20040;-82
2022/01/24 08:13:37;;;;;;;19.88;10.52;;;1.20;99.90;;;;;;5020554;28;20029;-82
2022/01/24 08:16:03;;;;;;;16.80;9.45;;;1.20;99.90;;;;;;5038441;28;20029;-82
2022/01/24 08:18:32;;;;;;;22.60;10.90;;;1.20;99.90;;;;;;5038946;28;20096;-84
2022/01/24 08:20:58;;;;;;;19.73;11.15;;;1.30;99.90;;;;;;5040802;28;20025;-84
2022/01/24 08:23:24;;;;;;;17.85;10.63;;;1.40;99.90;;;;;;5021283;28;20464;-82
2022/01/24 08:25:49;;;;;;;23.77;11.90;;;1.60;99.90;;;;;;5038852;28;20032;-83
2022/01/24 08:28:15;;;;;;;23.05;12.68;;;1.70;99.90;;;;;;5020601;28;20032;-82
2022/01/24 08:30:41;;;;;;;22.17;11.35;;;1.80;99.90;;;;;;5042438;28;20083;-84
2022/01/24 08:33:07;;;;;;;19.48;10.45;;;1.70;99.90;;;;;;5025412;28;20117;-84
2022/01/24 08:35:33;;;;;;;18.38;9.57;;;1.90;99.90;;;;;;5024718;28;20072;-86
2022/01/24 08:37:59;;;;;;;24.85;12.45;;;1.90;99.90;;;;;;5039724;28;20079;-86
2022/01/24 08:40:27;;;;;;;25.20;11.68;;;2.00;99.90;;;;;;5024167;28;20025;-85
2022/01/24 08:43:00;;;;;;;27.77;13.02;;;1.90;99.90;;;;;;5026148;28;20021;-86
2022/01/24 08:48:09;;;;;;;30.38;14.55;;;1.70;99.90;;;;;;5049073;28;20068;-83
2022/01/24 08:50:35;;;;;;;25.95;12.38;;;1.70;99.90;;;;;;5058393;28;20060;-82
2022/01/24 08:53:03;;;;;;;30.40;13.60;;;1.70;99.90;;;;;;5041163;28;20017;-84
2022/01/24 08:55:33;;;;;;;27.10;13.63;;;1.70;99.90;;;;;;5040676;28;20014;-84
2022/01/24 08:58:14;;;;;;;27.80;13.85;;;1.60;99.90;;;;;;5040030;28;20021;-81
2022/01/24 09:00:42;;;;;;;29.30;12.80;;;1.60;99.90;;;;;;5040704;28;20102;-81
2022/01/24 09:03:09;;;;;;;25.45;12.05;;;1.60;99.90;;;;;;5038202;28;20044;-84
2022/01/24 09:05:35;;;;;;;23.92;12.25;;;1.70;99.90;;;;;;5066079;22;20065;-84
2022/01/24 09:08:08;;;;;;;25.58;12.35;;;1.80;99.90;;;;;;5049264;28;20081;-81
2022/01/24 09:10:37;;;;;;;28.75;14.10;;;1.70;99.90;;;;;;5048366;28;20025;-85
2022/01/24 09:13:03;;;;;;;28.65;14.07;;;1.50;99.90;;;;;;5046125;28;20025;-87
2022/01/24 09:15:29;;;;;;;27.08;12.75;;;1.50;99.90;;;;;;5028987;28;20092;-85
2022/01/24 09:23:44;;;;;;;22.02;11.55;;;1.80;99.90;;;;;;5028117;28;20030;-85
2022/01/24 09:26:10;;;;;;;29.80;14.00;;;1.80;99.90;;;;;;5030592;28;20110;-83
2022/01/24 09:28:39;;;;;;;31.17;13.93;;;1.70;99.90;;;;;;5034642;28;20092;-82
2022/01/24 09:31:06;;;;;;;26.95;13.43;;;1.70;99.90;;;;;;5035229;28;20085;-84
2022/01/24 09:33:33;;;;;;;29.13;13.73;;;1.80;99.90;;;;;;5035324;28;20010;-80
2022/01/24 09:36:00;;;;;;;29.38;13.25;;;1.70;99.90;;;;;;5036180;28;20009;-81
2022/01/24 09:38:32;;;;;;;30.63;14.95;;;1.70;99.90;;;;;;5036133;28;20024;-82
2022/01/24 09:41:03;;;;;;;29.90;14.02;;;1.80;99.90;;;;;;5020338;28;20093;-80
2022/01/24 09:43:30;;;;;;;27.35;12.65;;;1.90;99.90;;;;;;5016754;28;20018;-81
2022/01/24 09:45:59;;;;;;;24.02;12.10;;;1.90;99.90;;;;;;5017046;28;20032;-81
2022/01/24 09:48:26;;;;;;;22.65;12.50;;;2.00;99.90;;;;;;5016408;28;20050;-80
2022/01/24 09:51:16;;;;;;;22.73;12.27;;;2.20;99.90;;;;;;5016646;28;20029;-82
2022/01/24 09:53:42;;;;;;;20.60;10.77;;;2.20;99.90;;;;;;5016876;28;20018;-80
2022/01/24 09:59:35;;;;;;;22.63;11.13;;;2.50;99.90;;;;;;5016058;28;20077;-82
2022/01/24 10:02:32;;;;;;;21.58;10.60;;;2.50;99.90;;;;;;5012406;28;20047;-84
2022/01/24 10:05:19;;;;;;;17.77;10.20;;;2.50;99.90;;;;;;4998904;28;20069;-84
2022/01/24 10:08:08;;;;;;;18.65;9.20;;;2.60;99.90;;;;;;5014509;28;20034;-83
2022/01/24 10:10:51;;;;;;;17.80;9.35;;;2.80;99.90;;;;;;5023958;28;20417;-84
2022/01/24 10:16:32;;;;;;;24.20;11.60;;;2.80;99.90;;;;;;5024100;28;20084;-87
2022/01/24 10:19:13;;;;;;;24.15;12.32;;;2.80;99.90;;;;;;5022793;28;20058;-85
2022/01/24 10:21:48;;;;;;;22.80;11.30;;;2.70;99.90;;;;;;5024167;28;20109;-86
2022/01/24 10:24:38;;;;;;;21.80;11.00;;;2.50;99.90;;;;;;5028381;23;20040;-85
2022/01/24 10:27:15;;;;;;;18.55;10.05;;;2.40;99.90;;;;;;5024870;28;20030;-83
2022/01/24 10:29:44;;;;;;;20.13;10.85;;;2.40;99.90;;;;;;5041895;28;20032;-85
2022/01/24 10:32:48;;;;;;;22.38;11.00;;;2.30;99.90;;;;;;5040730;28;20048;-85
2022/01/24 10:35:50;;;;;;;23.63;11.93;;;2.20;99.90;;;;;;5024411;28;20025;-86
2022/01/24 10:45:18;;;;;;;21.70;10.23;;;2.50;99.90;;;;;;4938003;29;20281;-83
2022/01/24 10:47:53;;;;;;;17.40;9.85;;;2.90;99.90;;;;;;5036183;28;20052;-84
2022/01/24 10:50:27;;;;;;;18.83;10.27;;;3.40;99.90;;;;;;5013275;28;20055;-86
2022/01/24 10:53:09;;;;;;;18.20;11.15;;;3.80;99.90;;;;;;5024822;28;20018;-86
2022/01/24 10:55:35;;;;;;;19.17;10.10;;;4.00;98.90;;;;;;5006768;28;20030;-87
2022/01/24 10:58:14;;;;;;;;;;;;;;;;;;;;;
2022/01/24 11:01:03;;;;;;;18.13;10.30;;;4.20;97.30;;;;;;5024381;28;20085;-86
2022/01/24 11:03:29;;;;;;;17.55;9.98;;;4.40;97.60;;;;;;5025216;28;20040;-85
2022/01/24 11:06:01;;;;;;;16.27;9.95;;;4.70;97.20;;;;;;5006281;28;20050;-85
2022/01/24 11:08:50;;;;;;;15.43;9.38;;;4.90;96.50;;;;;;5027107;28;20022;-84
2022/01/24 11:11:21;;;;;;;15.88;9.35;;;5.10;95.50;;;;;;5011905;28;20052;-85
2022/01/24 11:13:47;;;;;;;15.82;9.65;;;5.30;95.50;;;;;;5026265;28;20097;-85
2022/01/24 11:16:38;;;;;;;14.68;8.45;;;5.60;95.00;;;;;;5027910;28;20081;-84
2022/01/24 11:19:41;;;;;;;14.57;8.90;;;5.90;94.70;;;;;;5008487;28;20022;-82
2022/01/24 11:22:08;;;;;;;;;;;6.20;92.90;;;;;;5017933;28;20121;-82
2022/01/24 11:24:52;;;;;;;14.88;8.98;;;6.20;93.20;;;;;;5010895;28;19973;-83
2022/01/24 11:27:57;;;;;;;18.08;11.40;;;6.30;92.80;;;;;;5000502;28;20045;-84
2022/01/24 11:31:03;;;;;;;16.63;11.02;;;6.00;90.90;;;;;;5009371;28;20133;-84
2022/01/24 11:40:05;;;;;;;20.70;12.38;;;4.70;93.20;;;;;;4959255;28;20047;-84
2022/01/24 11:46:00;;;;;;;19.77;11.48;;;4.10;94.60;;;;;;5074029;23;20069;-86
2022/01/24 11:48:33;;;;;;;20.08;12.25;;;3.80;96.10;;;;;;5018322;28;20034;-85
2022/01/24 11:51:40;;;;;;;;;;;;;;;;;;;;;
2022/01/24 11:58:11;;;;;;;21.73;12.23;;;3.60;97.20;;;;;;4985207;28;20023;-82
2022/01/24 12:00:44;;;;;;;24.73;13.52;;;3.50;97.70;;;;;;5022787;28;20034;-86
2022/01/24 12:03:28;;;;;;;20.63;12.15;;;3.40;98.40;;;;;;5023506;28;20042;-85
2022/01/24 12:06:09;;;;;;;18.80;10.50;;;3.30;98.30;;;;;;5026032;28;20202;-87
2022/01/24 12:08:54;;;;;;;21.48;12.68;;;3.10;98.80;;;;;;5022830;28;20393;-85
2022/01/24 12:14:43;;;;;;;23.75;13.82;;;2.90;99.90;;;;;;4996110;28;20037;-86
2022/01/24 12:17:10;;;;;;;23.92;13.98;;;3.00;99.90;;;;;;5009109;28;20570;-84
2022/01/24 12:19:36;;;;;;;21.73;12.52;;;3.10;99.90;;;;;;5009648;28;20022;-84
2022/01/24 12:22:37;;;;;;;20.10;11.13;;;3.20;99.90;;;;;;5008173;28;20025;-88
2022/01/24 12:25:03;;;;;;;23.50;12.68;;;3.40;99.90;;;;;;5007074;28;20098;-84
2022/01/24 12:27:29;;;;;;;23.95;12.93;;;3.60;99.90;;;;;;5007810;28;20033;-82
2022/01/24 12:29:57;;;;;;;20.42;11.65;;;3.70;99.80;;;;;;5009123;28;20074;-83
2022/01/24 12:32:26;;;;;;;23.23;12.48;;;3.70;99.80;;;;;;5013641;28;20026;-84
2022/01/24 12:34:52;;;;;;;20.38;12.10;;;3.80;99.60;;;;;;5013884;28;20281;-85
2022/01/24 12:37:29;;;;;;;24.60;13.23;;;3.90;99.50;;;;;;5022688;28;20014;-84
2022/01/24 12:40:00;;;;;;;26.38;14.57;;;4.00;98.50;;;;;;5036787;28;20022;-85
2022/01/24 12:48:17;;;;;;;30.90;13.65;;;3.70;98.80;;;;;;5037579;28;20068;-85
2022/01/24 12:50:45;;;;;;;24.25;13.45;;;3.50;99.50;;;;;;5032486;28;20022;-84
2022/01/24 12:53:14;;;;;;;25.73;14.23;;;3.50;99.20;;;;;;5033170;28;20032;-84
2022/01/24 12:55:41;;;;;;;21.85;12.77;;;3.50;99.80;;;;;;5037774;28;20041;-85
2022/01/24 12:58:07;;;;;;;24.92;13.35;;;3.50;99.80;;;;;;5032969;28;20018;-85
2022/01/24 13:00:32;;;;;;;25.35;13.82;;;3.50;99.90;;;;;;5031621;28;20033;-85
2022/01/24 13:02:58;;;;;;;20.70;11.48;;;3.50;99.90;;;;;;5036574;28;20052;-83
2022/01/24 13:05:26;;;;;;;26.98;13.32;;;3.40;99.90;;;;;;5037427;28;20029;-84
2022/01/24 13:07:55;;;;;;;28.23;14.73;;;3.40;99.90;;;;;;5019917;28;20029;-84
2022/01/24 13:10:24;;;;;;;26.38;15.10;;;3.30;99.90;;;;;;5028467;28;20133;-84
2022/01/24 13:13:10;;;;;;;27.85;14.70;;;3.30;99.90;;;;;;5023716;28;20037;-84
2022/01/24 13:21:16;;;;;;;25.60;14.70;;;3.30;99.90;;;;;;5027668;28;20115;-85
2022/01/24 13:23:45;;;;;;;32.38;15.07;;;3.40;99.90;;;;;;5025811;28;20033;-86
2022/01/24 13:26:12;;;;;;;25.23;14.95;;;3.40;99.90;;;;;;5025307;28;20106;-85
2022/01/24 13:28:39;;;;;;;27.88;15.45;;;3.30;99.90;;;;;;5022617;28;20021;-85
2022/01/24 13:31:05;;;;;;;28.35;17.02;;;3.30;99.90;;;;;;5024235;28;20025;-84
2022/01/24 13:33:38;;;;;;;30.08;16.02;;;3.30;99.90;;;;;;5024488;28;20030;-85
2022/01/24 13:36:08;;;;;;;30.13;16.60;;;3.40;99.90;;;;;;5022930;28;20029;-84
2022/01/24 13:38:39;;;;;;;28.70;16.67;;;3.40;99.90;;;;;;5025170;28;20036;-84
2022/01/24 13:41:14;;;;;;;27.13;15.48;;;3.50;99.90;;;;;;5008937;28;20048;-84
2022/01/24 13:46:44;;;;;;;29.38;15.93;;;3.80;99.90;;;;;;5007335;28;20122;-84
2022/01/24 13:49:13;;;;;;;26.98;15.20;;;3.90;99.90;;;;;;5008055;28;20026;-85
2022/01/24 13:51:49;;;;;;;28.50;16.27;;;3.80;99.90;;;;;;5022075;28;20014;-83
2022/01/24 13:54:28;;;;;;;25.27;15.25;;;3.70;99.90;;;;;;5018192;28;20040;-85
2022/01/24 13:57:05;;;;;;;29.85;16.13;;;3.70;99.90;;;;;;5017633;28;20034;-84
2022/01/24 13:59:32;;;;;;;27.35;16.70;;;3.70;99.90;;;;;;5033942;28;20014;-83
2022/01/24 14:02:09;;;;;;;28.25;16.35;;;3.60;99.90;;;;;;5034448;28;20066;-83
2022/01/24 14:04:37;;;;;;;29.08;16.08;;;3.60;99.90;;;;;;5025899;28;20018;-84
2022/01/24 14:07:07;;;;;;;30.05;16.02;;;3.50;99.90;;;;;;5029550;28;20018;-82
2022/01/24 14:12:54;;;;;;;27.42;16.10;;;3.40;99.90;;;;;;5008119;28;20048;-84
2022/01/24 14:16:03;;;;;;;27.92;15.38;;;3.40;99.90;;;;;;5019839;28;20114;-83
2022/01/24 14:18:30;;;;;;;24.67;13.82;;;3.40;99.90;;;;;;5005989;28;20057;-84
2022/01/24 14:21:18;;;;;;;28.67;16.25;;;3.50;99.90;;;;;;5007086;28;20030;-85
2022/01/24 14:24:31;;;;;;;26.05;14.57;;;3.50;99.90;;;;;;5032515;28;20097;-83
2022/01/24 14:26:57;;;;;;;27.02;14.90;;;3.40;99.90;;;;;;5034537;28;20060;-85
2022/01/24 14:29:33;;;;;;;26.55;13.57;;;3.40;99.90;;;;;;5031193;28;20025;-85
2022/01/24 14:32:09;;;;;;;24.27;13.95;;;3.30;99.90;;;;;;5021287;28;20453;-85
2022/01/24 14:34:35;;;;;;;23.00;13.32;;;3.30;99.90;;;;;;5023154;28;20026;-82
2022/01/24 14:37:05;;;;;;;28.58;13.48;;;3.40;99.90;;;;;;5024476;28;20029;-81
2022/01/24 14:39:42;;;;;;;23.92;12.52;;;3.30;99.90;;;;;;5020971;28;20026;-79
2022/01/24 14:42:12;;;;;;;24.92;13.90;;;3.30;99.90;;;;;;5022894;28;20081;-80
2022/01/24 14:44:53;;;;;;;22.33;13.60;;;3.30;99.90;;;;;;5021759;28;20219;-80
2022/01/24 14:47:24;;;;;;;25.05;13.73;;;3.30;99.90;;;;;;5017119;28;20439;-79
2022/01/24 14:49:51;;;;;;;23.25;13.15;;;3.20;99.90;;;;;;5017071;28;20030;-81
2022/01/24 14:52:25;;;;;;;22.52;13.48;;;3.10;99.90;;;;;;5023055;28;20051;-82
2022/01/24 14:54:51;;;;;;;27.23;14.90;;;3.10;99.90;;;;;;5035446;28;20033;-86
2022/01/24 14:57:17;;;;;;;23.55;13.40;;;3.10;99.90;;;;;;5034464;28;20030;-85
2022/01/24 14:59:44;;;;;;;23.40;13.38;;;3.00;99.90;;;;;;5021975;28;20033;-79
2022/01/24 15:02:11;;;;;;;25.70;14.05;;;3.00;99.90;;;;;;5020895;28;20030;-83
2022/01/24 15:04:36;;;;;;;25.38;14.43;;;3.00;99.90;;;;;;5017483;28;20483;-80
2022/01/24 15:07:03;;;;;;;24.25;13.50;;;3.00;99.90;;;;;;5014406;28;20073;-83
2022/01/24 15:09:31;;;;;;;26.95;14.13;;;2.90;99.90;;;;;;5011252;28;20086;-84
2022/01/24 15:11:59;;;;;;;20.95;13.45;;;2.90;99.90;;;;;;5019843;28;20037;-82
2022/01/24 15:14:33;;;;;;;22.73;13.57;;;2.90;99.90;;;;;;5005484;28;20030;-83
2022/01/24 15:25:30;;;;;;;25.27;13.10;;;2.70;99.90;;;;;;5011461;28;20031;-82
2022/01/24 15:27:57;;;;;;;23.02;12.30;;;2.70;99.90;;;;;;5002973;28;20027;-82
2022/01/24 15:30:25;;;;;;;23.15;12.98;;;2.70;99.90;;;;;;5018651;28;20081;-83
2022/01/24 15:32:51;;;;;;;27.45;14.68;;;2.70;99.90;;;;;;5003474;28;20080;-85
2022/01/24 15:35:17;;;;;;;19.80;12.02;;;2.60;99.90;;;;;;5002304;28;20114;-85
2022/01/24 15:37:45;;;;;;;22.02;12.60;;;2.50;99.90;;;;;;5017606;28;20026;-82
2022/01/24 15:40:12;;;;;;;20.35;11.65;;;2.50;99.90;;;;;;5001881;28;20219;-82
2022/01/24 15:47:45;;;;;;;25.17;13.98;;;2.30;99.90;;;;;;5014634;28;20026;-83
2022/01/24 15:50:17;;;;;;;24.92;13.75;;;2.30;99.90;;;;;;5010356;28;20022;-81